createdAt,value
2022-09-13T00:02:04.537Z,45.27
2022-09-13T00:12:15.028Z,46.47
2022-09-13T00:17:20.246Z,45.95
2022-09-13T00:22:25.202Z,43.05
2022-09-13T00:27:30.679Z,43.40
2022-09-13T00:37:41.390Z,43.13
2022-09-13T00:42:46.682Z,46.55
2022-09-13T00:47:59.261Z,50.53
2022-09-13T00:53:26.893Z,50.88
2022-09-13T00:58:40.503Z,49.90
2022-09-13T01:03:47.948Z,59.85
2022-09-13T01:08:55.611Z,49.08
2022-09-13T01:14:01.422Z,45.97
2022-09-13T01:19:06.978Z,42.00
2022-09-13T01:29:56.710Z,41.80
2022-09-13T01:35:19.792Z,42.45
2022-09-13T01:40:34.053Z,52.45
2022-09-13T01:45:51.266Z,39.20
2022-09-13T01:51:06.213Z,41.58
2022-09-13T01:56:26.162Z,58.47
2022-09-13T02:01:38.050Z,33.80
2022-09-13T02:07:07.075Z,44.30
2022-09-13T02:12:27.257Z,47.83
2022-09-13T02:17:39.696Z,39.45
2022-09-13T02:22:50.253Z,34.30
2022-09-13T02:28:00.440Z,43.70
2022-09-13T02:33:15.751Z,40.28
2022-09-13T02:38:33.881Z,36.03
2022-09-13T02:43:46.267Z,38.28
2022-09-13T02:49:01.381Z,43.38
2022-09-13T02:54:22.064Z,32.07
2022-09-13T02:59:28.365Z,35.25
2022-09-13T03:04:36.191Z,35.72
2022-09-13T03:09:57.684Z,39.78
2022-09-13T03:15:16.204Z,39.47
2022-09-13T03:20:33.614Z,34.30
2022-09-13T03:26:26.758Z,36.20
2022-09-13T03:32:03.885Z,33.78
2022-09-13T03:37:37.232Z,38.50
2022-09-13T03:42:49.622Z,32.78
2022-09-13T03:47:56.424Z,40.38
2022-09-13T03:53:08.138Z,32.60
2022-09-13T03:58:21.697Z,40.88
2022-09-13T04:03:27.184Z,33.97
2022-09-13T04:13:41.481Z,32.87
2022-09-13T04:18:46.935Z,31.35
2022-09-13T04:23:55.308Z,41.40
2022-09-13T04:29:00.671Z,34.13
2022-09-13T04:34:07.326Z,38.10
2022-09-13T04:39:15.632Z,34.67
2022-09-13T04:44:22.225Z,40.13
2022-09-13T04:49:27.748Z,31.52
2022-09-13T04:54:33.805Z,34.97
2022-09-13T04:59:39.203Z,37.38
2022-09-13T05:09:51.327Z,39.60
2022-09-13T05:14:57.031Z,37.45
2022-09-13T05:20:02.968Z,35.05
2022-09-13T05:25:10.642Z,35.15
2022-09-13T05:30:17.094Z,34.63
2022-09-13T05:35:22.766Z,36.50
2022-09-13T05:40:28.813Z,32.28
2022-09-13T05:45:34.359Z,35.50
2022-09-13T05:50:57.788Z,34.80
2022-09-13T05:56:04.725Z,32.72
2022-09-13T06:01:11.590Z,31.13
2022-09-13T06:06:17.158Z,33.65
2022-09-13T06:16:28.123Z,41.17
2022-09-13T06:21:34.232Z,31.10
2022-09-13T06:26:39.958Z,32.55
2022-09-13T06:31:46.844Z,31.75
2022-09-13T06:36:52.481Z,33.97
2022-09-13T06:41:58.078Z,26.73
2022-09-13T06:47:17.502Z,33.22
2022-09-13T06:52:23.362Z,29.15
2022-09-13T06:57:32.207Z,31.17
2022-09-13T07:02:37.649Z,31.85
2022-09-13T07:07:42.989Z,33.10
2022-09-13T07:12:49.544Z,27.58
2022-09-13T07:17:55.306Z,29.67
2022-09-13T07:23:00.872Z,30.17
2022-09-13T07:28:06.616Z,27.83
2022-09-13T07:33:12.187Z,29.10
2022-09-13T07:38:18.442Z,33.20
2022-09-13T07:43:24.141Z,31.13
2022-09-13T07:48:33.662Z,30.08
2022-09-13T07:53:40.569Z,31.88
2022-09-13T07:58:48.109Z,32.72
2022-09-13T08:04:04.887Z,30.33
2022-09-13T08:09:12.206Z,28.05
2022-09-13T08:14:20.286Z,31.85
2022-09-13T08:19:25.620Z,29.48
2022-09-13T08:24:31.271Z,32.42
2022-09-13T08:29:36.999Z,34.83
2022-09-13T08:34:42.359Z,36.08
2022-09-13T08:39:50.040Z,38.33
2022-09-13T08:44:59.319Z,35.90
2022-09-13T08:50:21.293Z,36.38
2022-09-13T08:56:00.269Z,35.33
2022-09-13T09:01:41.048Z,35.83
2022-09-13T09:06:47.228Z,37.65
2022-09-13T09:12:38.259Z,39.75
2022-09-13T09:17:58.483Z,41.67
2022-09-13T09:23:10.194Z,36.28
2022-09-13T09:28:18.361Z,41.55
2022-09-13T09:33:52.065Z,43.28
2022-09-13T09:38:58.699Z,38.22
2022-09-13T09:44:19.766Z,45.22
2022-09-13T09:49:55.559Z,63.22
2022-09-13T10:00:15.541Z,57.03
2022-09-13T10:05:23.037Z,45.45
2022-09-13T10:10:40.288Z,57.17
2022-09-13T10:16:33.384Z,59.95
2022-09-13T10:21:38.818Z,54.38
2022-09-13T10:26:45.321Z,65.80
2022-09-13T10:31:55.415Z,72.35
2022-09-13T10:37:24.291Z,64.60
2022-09-13T10:42:32.793Z,57.90
2022-09-13T10:47:46.357Z,65.00
2022-09-13T10:52:54.117Z,83.80
2022-09-13T10:58:05.544Z,74.25
2022-09-13T11:03:40.405Z,75.20
2022-09-13T11:08:49.429Z,61.08
2022-09-13T11:14:06.817Z,81.22
2022-09-13T11:19:45.441Z,86.53
2022-09-13T11:25:15.164Z,92.05
2022-09-13T11:30:27.779Z,99.82
2022-09-13T11:35:59.640Z,96.82
2022-09-13T11:41:29.882Z,86.03
2022-09-13T11:47:13.335Z,107.75
2022-09-13T11:52:54.042Z,110.15
2022-09-13T11:58:03.296Z,102.70
2022-09-13T12:03:14.446Z,119.50
2022-09-13T12:08:26.357Z,119.97
2022-09-13T12:13:59.922Z,114.00
2022-09-13T12:19:41.187Z,123.40
2022-09-13T12:24:53.818Z,122.25
2022-09-13T12:30:21.779Z,118.47
2022-09-13T12:35:33.716Z,119.18
2022-09-13T12:41:13.675Z,116.35
2022-09-13T12:46:34.005Z,116.00
2022-09-13T12:51:58.288Z,119.45
2022-09-13T12:57:03.880Z,110.85
2022-09-13T13:02:29.454Z,114.50
2022-09-13T13:07:39.856Z,116.97
2022-09-13T13:12:45.608Z,111.95
2022-09-13T13:17:53.771Z,118.00
2022-09-13T13:23:17.757Z,127.95
2022-09-13T13:28:45.770Z,130.77
2022-09-13T13:34:11.330Z,129.35
2022-09-13T13:39:28.598Z,114.53
2022-09-13T13:44:34.727Z,116.55
2022-09-13T13:49:40.585Z,118.82
2022-09-13T13:54:46.314Z,121.00
2022-09-13T13:59:54.451Z,113.35
2022-09-13T14:05:20.718Z,107.50
2022-09-13T14:10:27.845Z,108.90
2022-09-13T14:15:47.891Z,103.03
2022-09-13T14:21:05.382Z,130.05
2022-09-13T14:26:14.409Z,134.65
2022-09-13T14:31:22.161Z,142.00
2022-09-13T14:36:29.426Z,138.73
2022-09-13T14:41:39.413Z,134.40
2022-09-13T14:46:48.045Z,120.63
2022-09-13T14:52:07.443Z,107.60
2022-09-13T14:57:32.198Z,101.20
2022-09-13T15:02:42.423Z,91.20
2022-09-13T15:07:48.914Z,79.65
2022-09-13T15:12:56.147Z,72.80
2022-09-13T15:18:07.544Z,65.80
2022-09-13T15:23:26.829Z,58.55
2022-09-13T15:28:50.211Z,59.72
2022-09-13T15:34:22.040Z,41.13
2022-09-13T15:39:28.604Z,37.92
2022-09-13T15:44:34.214Z,36.13
2022-09-13T15:49:45.270Z,32.55
2022-09-13T15:54:53.216Z,34.30
2022-09-13T16:00:05.570Z,34.13
2022-09-13T16:05:15.380Z,33.10
2022-09-13T16:10:25.468Z,29.27
2022-09-13T16:15:31.287Z,38.22
2022-09-13T16:20:37.265Z,38.25
2022-09-13T16:25:43.304Z,33.25
2022-09-13T16:30:50.121Z,37.17
2022-09-13T16:35:58.045Z,35.95
2022-09-13T16:41:10.419Z,38.65
2022-09-13T16:46:16.983Z,38.55
2022-09-13T16:51:22.491Z,46.13
2022-09-13T16:56:29.041Z,53.67
2022-09-13T17:01:34.791Z,55.55
2022-09-13T17:06:40.715Z,76.82
2022-09-13T17:11:47.418Z,85.65
2022-09-13T17:16:56.065Z,79.40
2022-09-13T17:22:02.549Z,80.07
2022-09-13T17:27:09.755Z,87.28
2022-09-13T17:32:15.157Z,77.47
2022-09-13T17:37:20.685Z,75.07
2022-09-13T17:42:26.076Z,71.60
2022-09-13T17:52:37.644Z,82.72
2022-09-13T17:57:43.045Z,71.80
2022-09-13T18:07:54.269Z,71.20
2022-09-13T18:18:05.242Z,64.78
2022-09-13T18:23:11.256Z,70.15
2022-09-13T18:28:17.200Z,71.65
2022-09-13T18:33:24.316Z,69.72
2022-09-13T18:38:30.785Z,68.93
2022-09-13T18:43:38.446Z,71.47
2022-09-13T18:48:47.469Z,70.78
2022-09-13T18:53:53.990Z,63.22
2022-09-13T18:59:00.979Z,60.72
2022-09-13T19:04:10.131Z,60.95
2022-09-13T19:09:17.040Z,59.88
2022-09-13T19:14:25.270Z,55.55
2022-09-13T19:19:32.599Z,52.47
2022-09-13T19:24:39.607Z,57.63
2022-09-13T19:29:45.370Z,61.80
2022-09-13T19:34:51.934Z,62.28
2022-09-13T19:39:57.853Z,57.28
2022-09-13T19:45:03.210Z,51.80
2022-09-13T19:55:14.584Z,56.73
2022-09-13T20:00:21.405Z,55.10
2022-09-13T20:05:28.260Z,56.80
2022-09-13T20:10:41.862Z,57.15
2022-09-13T20:15:47.636Z,61.30
2022-09-13T20:20:58.163Z,64.95
2022-09-13T20:26:05.284Z,59.80
2022-09-13T20:31:11.370Z,66.60
2022-09-13T20:36:17.280Z,70.82
2022-09-13T20:41:23.657Z,62.83
2022-09-13T20:46:30.918Z,76.88
2022-09-13T20:51:36.432Z,84.13
2022-09-13T21:01:56.144Z,86.20
2022-09-13T21:07:25.121Z,79.07
2022-09-13T21:12:31.216Z,88.40
2022-09-13T21:17:36.854Z,92.70
2022-09-13T21:22:43.193Z,88.07
2022-09-13T21:27:48.905Z,95.00
2022-09-13T21:32:54.183Z,85.50
2022-09-13T21:37:59.795Z,95.50
2022-09-13T21:48:10.620Z,84.05
2022-09-13T21:53:16.403Z,95.10
2022-09-13T21:58:22.117Z,93.07
2022-09-13T22:03:27.820Z,93.28
2022-09-13T22:08:41.856Z,84.38
2022-09-13T22:13:49.196Z,94.00
2022-09-13T22:19:00.439Z,90.03
2022-09-13T22:24:07.740Z,83.90
2022-09-13T22:29:14.119Z,82.97
2022-09-13T22:34:22.936Z,82.85
2022-09-13T22:39:29.030Z,72.50
2022-09-13T22:44:35.266Z,90.22
2022-09-13T22:49:40.752Z,82.35
2022-09-13T22:54:47.887Z,94.72
2022-09-13T22:59:53.071Z,102.78
2022-09-13T23:10:04.375Z,89.30
2022-09-13T23:15:10.250Z,107.55
2022-09-13T23:20:16.060Z,93.13
2022-09-13T23:25:21.760Z,99.03
2022-09-13T23:30:28.093Z,89.60
2022-09-13T23:35:39.242Z,87.80
2022-09-13T23:40:44.712Z,110.95
2022-09-13T23:51:04.152Z,100.70
2022-09-13T23:56:10.495Z,127.90
